Huvudsida
METAR-TAF:

METAR-TAF

Flygplatser :

Iranshahr, Iran

latitud: 27-12N, longitud: 060-42E, höjd: 591 m

Aktuellt väderrapport

Denna rapport gjordes för 59 minuter sedan, klockan 07:00 UTC
Vind 4 kt från ost/sydost
Temperatur 25°C
Fuktighet 28%
Tryck 1022 hPa
Sikt: 6000 m

METAR: OIZI 220700Z 12004KT 6000 NSC 25/05 Q1022

Tid: 11:29 (07:59 UTC)


TAF: saknas

Aktuella väderrapporter och prognoser från 4000 flygplatser (METAR- och TAF-rapporter).

De tillgängliga stationerna syns som gula och röda prickar på kartan.

För musen över prickarna för att se namnen på stationerna.

Klicka sedan för att få väderrapporter och prognoser.

För att ändra kartan: Klicka på de gröna knapparna med ett svart kors på för att zooma in; den gröna knappen med ett streck på för att zooma ut; eller på de gröna pilarna för angränsande kartor.


METAR-TAF: